createdAt,value
2022-11-29T00:01:27.997Z,102220.53
2022-11-29T00:03:55.892Z,102231.31
2022-11-29T00:06:29.567Z,102217.50
2022-11-29T00:09:00.154Z,102223.13
2022-11-29T00:11:49.571Z,102225.75
2022-11-29T00:14:18.760Z,102215.16
2022-11-29T00:16:50.883Z,102220.41
2022-11-29T00:19:18.541Z,102215.88
2022-11-29T00:21:46.459Z,102219.59
2022-11-29T00:24:14.352Z,102202.47
2022-11-29T00:26:42.161Z,102201.03
2022-11-29T00:29:14.424Z,102212.94
2022-11-29T00:31:42.293Z,102213.91
2022-11-29T00:34:11.627Z,102211.13
2022-11-29T00:36:39.713Z,102209.50
2022-11-29T00:39:07.582Z,102200.88
2022-11-29T00:41:35.573Z,102196.44
2022-11-29T00:44:03.042Z,102198.34
2022-11-29T00:46:30.490Z,102209.94
2022-11-29T00:48:57.900Z,102187.31
2022-11-29T00:51:25.492Z,102199.75
2022-11-29T00:53:52.965Z,102202.19
2022-11-29T00:56:20.541Z,102205.72
2022-11-29T00:58:49.364Z,102197.81
2022-11-29T01:01:17.362Z,102193.16
2022-11-29T01:03:45.024Z,102203.34
2022-11-29T01:06:15.413Z,102210.19
2022-11-29T01:08:43.035Z,102197.63
2022-11-29T01:11:18.443Z,102195.75
2022-11-29T01:13:46.079Z,102198.50
2022-11-29T01:16:15.611Z,102196.16
2022-11-29T01:18:44.136Z,102200.84
2022-11-29T01:21:17.720Z,102190.34
2022-11-29T01:23:46.737Z,102184.53
2022-11-29T01:26:23.056Z,102190.63
2022-11-29T01:28:53.333Z,102202.84
2022-11-29T01:31:27.431Z,102196.56
2022-11-29T01:34:00.279Z,102189.00
2022-11-29T01:36:28.692Z,102186.16
2022-11-29T01:38:58.283Z,102194.59
2022-11-29T01:41:28.723Z,102191.06
2022-11-29T01:44:14.279Z,102199.41
2022-11-29T01:46:44.814Z,102198.44
2022-11-29T01:49:14.983Z,102199.63
2022-11-29T01:51:55.666Z,102193.69
2022-11-29T01:54:23.270Z,102204.53
2022-11-29T01:56:52.981Z,102197.06
2022-11-29T01:59:23.817Z,102199.31
2022-11-29T02:01:52.490Z,102202.84
2022-11-29T02:04:20.441Z,102204.56
2022-11-29T02:06:48.244Z,102209.59
2022-11-29T02:09:22.591Z,102208.16
2022-11-29T02:11:52.840Z,102205.28
2022-11-29T02:14:47.973Z,102204.38
2022-11-29T02:17:38.523Z,102201.34
2022-11-29T02:20:43.081Z,102205.91
2022-11-29T02:23:25.696Z,102209.44
2022-11-29T02:26:14.619Z,102207.13
2022-11-29T02:29:19.191Z,102211.22
2022-11-29T02:31:49.523Z,102210.13
2022-11-29T02:35:02.783Z,102206.28
2022-11-29T02:37:55.370Z,102203.47
2022-11-29T02:40:41.684Z,102209.41
2022-11-29T02:43:25.406Z,102208.34
2022-11-29T02:46:10.846Z,102212.75
2022-11-29T02:48:40.950Z,102217.59
2022-11-29T02:51:36.642Z,102220.44
2022-11-29T02:54:37.496Z,102216.78
2022-11-29T02:57:20.904Z,102208.25
2022-11-29T02:59:56.818Z,102217.53
2022-11-29T03:02:36.886Z,102209.47
2022-11-29T03:05:33.766Z,102212.22
2022-11-29T03:08:19.933Z,102218.75
2022-11-29T03:11:03.564Z,102211.09
2022-11-29T03:13:53.058Z,102213.69
2022-11-29T03:16:39.687Z,102222.88
2022-11-29T03:19:10.297Z,102215.84
2022-11-29T03:21:58.538Z,102210.44
2022-11-29T03:24:48.774Z,102213.63
2022-11-29T03:27:43.754Z,102221.97
2022-11-29T03:30:14.172Z,102225.97
2022-11-29T03:32:56.499Z,102215.84
2022-11-29T03:35:54.703Z,102223.66
2022-11-29T03:38:44.905Z,102227.31
2022-11-29T03:41:18.172Z,102226.78
2022-11-29T03:44:13.366Z,102217.44
2022-11-29T03:47:14.051Z,102229.41
2022-11-29T03:49:56.691Z,102211.00
2022-11-29T03:52:30.471Z,102240.25
2022-11-29T03:55:10.063Z,102229.50
2022-11-29T03:58:08.779Z,102237.53
2022-11-29T04:01:08.356Z,102244.88
2022-11-29T04:03:54.103Z,102240.56
2022-11-29T04:06:33.164Z,102247.59
2022-11-29T04:09:35.828Z,102239.13
2022-11-29T04:12:16.157Z,102242.75
2022-11-29T04:15:10.434Z,102257.53
2022-11-29T04:18:47.782Z,102254.94
2022-11-29T04:21:36.211Z,102264.88
2022-11-29T04:24:12.435Z,102265.22
2022-11-29T04:26:58.335Z,102264.63
2022-11-29T04:29:50.445Z,102264.84
2022-11-29T04:32:51.754Z,102254.03
2022-11-29T04:35:55.888Z,102263.06
2022-11-29T04:38:59.363Z,102243.31
2022-11-29T04:41:55.996Z,102258.00
2022-11-29T04:44:37.204Z,102254.81
2022-11-29T04:47:26.057Z,102257.63
2022-11-29T04:50:16.916Z,102258.34
2022-11-29T04:53:05.607Z,102268.56
2022-11-29T04:55:39.070Z,102277.38
2022-11-29T04:58:19.592Z,102271.38
2022-11-29T05:01:04.980Z,102285.31
2022-11-29T05:03:40.935Z,102274.59
2022-11-29T05:06:21.295Z,102281.81
2022-11-29T05:09:17.696Z,102288.06
2022-11-29T05:11:45.135Z,102305.13
2022-11-29T05:14:59.920Z,102299.63
2022-11-29T05:17:42.539Z,102299.22
2022-11-29T05:20:31.854Z,102297.03
2022-11-29T05:23:18.116Z,102293.91
2022-11-29T05:26:07.127Z,102309.19
2022-11-29T05:29:05.305Z,102309.72
2022-11-29T05:31:41.703Z,102317.53
2022-11-29T05:35:04.311Z,102302.25
2022-11-29T05:37:43.506Z,102317.00
2022-11-29T05:40:13.771Z,102314.69
2022-11-29T05:42:59.792Z,102316.91
2022-11-29T05:45:34.967Z,102303.56
2022-11-29T05:48:14.294Z,102302.84
2022-11-29T05:51:19.082Z,102306.97
2022-11-29T05:54:24.663Z,102317.31
2022-11-29T05:57:11.952Z,102308.78
2022-11-29T05:59:42.866Z,102320.38
2022-11-29T06:02:38.303Z,102305.13
2022-11-29T06:05:25.763Z,102319.78
2022-11-29T06:08:20.326Z,102317.38
2022-11-29T06:11:14.076Z,102329.66
2022-11-29T06:14:03.188Z,102334.16
2022-11-29T06:16:57.105Z,102325.13
2022-11-29T06:19:30.584Z,102326.94
2022-11-29T06:22:21.466Z,102327.19
2022-11-29T06:25:07.943Z,102328.88
2022-11-29T06:27:38.349Z,102333.69
2022-11-29T06:30:15.182Z,102326.88
2022-11-29T06:33:08.623Z,102345.19
2022-11-29T06:36:13.130Z,102342.38
2022-11-29T06:38:41.662Z,102346.94
2022-11-29T06:41:16.681Z,102360.16
2022-11-29T06:43:44.621Z,102359.31
2022-11-29T06:46:35.217Z,102343.19
2022-11-29T06:49:28.668Z,102360.19
2022-11-29T06:52:02.219Z,102356.56
2022-11-29T06:55:13.984Z,102363.00
2022-11-29T06:58:07.844Z,102359.50
2022-11-29T07:00:58.066Z,102355.16
2022-11-29T07:03:44.099Z,102366.06
2022-11-29T07:06:40.848Z,102364.84
2022-11-29T07:09:19.427Z,102373.38
2022-11-29T07:11:48.169Z,102372.34
2022-11-29T07:14:15.856Z,102363.41
2022-11-29T07:16:59.917Z,102368.75
2022-11-29T07:19:33.077Z,102363.13
2022-11-29T07:22:14.550Z,102371.63
2022-11-29T07:24:56.622Z,102363.88
2022-11-29T07:27:49.980Z,102363.31
2022-11-29T07:30:21.870Z,102368.63
2022-11-29T07:33:05.774Z,102365.63
2022-11-29T07:35:53.147Z,102365.00
2022-11-29T07:38:43.669Z,102369.56
2022-11-29T07:41:40.493Z,102367.06
2022-11-29T07:44:36.319Z,102366.19
2022-11-29T07:47:03.858Z,102369.59
2022-11-29T07:49:31.321Z,102368.81
2022-11-29T07:51:58.943Z,102369.31
2022-11-29T07:54:26.410Z,102374.44
2022-11-29T07:56:53.943Z,102371.19
2022-11-29T07:59:21.439Z,102370.41
2022-11-29T08:01:49.104Z,102375.81
2022-11-29T08:04:16.620Z,102384.69
2022-11-29T08:06:44.487Z,102378.91
2022-11-29T08:09:12.135Z,102374.88
2022-11-29T08:11:40.000Z,102377.59
2022-11-29T08:14:07.487Z,102374.22
2022-11-29T08:16:35.908Z,102376.84
2022-11-29T08:19:03.906Z,102374.97
2022-11-29T08:21:31.411Z,102381.28
2022-11-29T08:23:58.846Z,102377.63
2022-11-29T08:26:31.236Z,102380.25
2022-11-29T08:29:01.204Z,102378.06
2022-11-29T08:31:28.886Z,102376.84
2022-11-29T08:33:56.346Z,102378.63
2022-11-29T08:36:23.876Z,102382.63
2022-11-29T08:38:55.827Z,102380.72
2022-11-29T08:41:29.127Z,102375.50
2022-11-29T08:43:56.827Z,102372.97
2022-11-29T08:46:44.263Z,102369.41
2022-11-29T08:49:11.847Z,102373.34
2022-11-29T08:51:41.555Z,102374.66
2022-11-29T08:54:09.243Z,102376.09
2022-11-29T08:59:25.787Z,102380.47
2022-11-29T09:01:53.290Z,102373.06
2022-11-29T09:04:20.761Z,102381.63
2022-11-29T09:06:51.198Z,102376.06
2022-11-29T09:09:21.161Z,102383.13
2022-11-29T09:11:49.747Z,102367.28
2022-11-29T09:14:18.235Z,102381.28
2022-11-29T09:16:45.748Z,102375.66
2022-11-29T09:19:14.446Z,102375.28
2022-11-29T09:21:41.942Z,102380.19
2022-11-29T09:24:10.304Z,102378.38
2022-11-29T09:26:41.908Z,102382.81
2022-11-29T09:29:10.963Z,102371.06
2022-11-29T09:31:38.459Z,102373.41
2022-11-29T09:34:05.908Z,102362.91
2022-11-29T09:36:33.810Z,102368.75
2022-11-29T09:39:04.966Z,102365.84
2022-11-29T09:41:59.385Z,102371.47
2022-11-29T09:44:52.154Z,102373.59
2022-11-29T09:47:19.637Z,102370.97
2022-11-29T09:49:56.270Z,102362.00
2022-11-29T09:52:32.682Z,102366.53
2022-11-29T09:55:24.773Z,102366.03
2022-11-29T09:57:55.419Z,102363.22
2022-11-29T10:00:23.105Z,102351.81
2022-11-29T10:02:58.950Z,102359.72
2022-11-29T10:05:35.572Z,102349.38
2022-11-29T10:08:14.679Z,102351.88
2022-11-29T10:10:51.067Z,102352.69
2022-11-29T10:13:27.378Z,102358.25
2022-11-29T10:16:00.011Z,102349.09
2022-11-29T10:19:07.940Z,102349.38
2022-11-29T10:21:38.670Z,102350.63
2022-11-29T10:24:14.772Z,102342.75
2022-11-29T10:26:43.643Z,102338.41
2022-11-29T10:29:15.441Z,102350.28
2022-11-29T10:31:49.583Z,102339.84
2022-11-29T10:34:20.574Z,102351.34
2022-11-29T10:36:55.587Z,102341.47
2022-11-29T10:39:30.717Z,102339.47
2022-11-29T10:42:02.301Z,102346.81
2022-11-29T10:44:33.213Z,102350.25
2022-11-29T10:47:10.428Z,102348.94
2022-11-29T10:49:40.366Z,102342.22
2022-11-29T10:52:21.178Z,102347.94
2022-11-29T10:54:53.897Z,102352.16
2022-11-29T10:57:22.697Z,102346.31
2022-11-29T11:00:09.868Z,102352.25
2022-11-29T11:02:38.043Z,102351.44
2022-11-29T11:05:18.821Z,102347.75
2022-11-29T11:07:57.484Z,102351.97
2022-11-29T11:10:30.906Z,102341.91
2022-11-29T11:13:08.210Z,102347.34
2022-11-29T11:15:36.086Z,102341.09
2022-11-29T11:18:06.379Z,102346.75
2022-11-29T11:20:42.626Z,102340.81
2022-11-29T11:23:29.927Z,102341.31
2022-11-29T11:26:02.375Z,102339.91
2022-11-29T11:28:47.285Z,102348.84
2022-11-29T11:31:15.494Z,102348.94
2022-11-29T11:33:46.564Z,102342.41
2022-11-29T11:36:23.097Z,102333.03
2022-11-29T11:38:50.625Z,102349.44
2022-11-29T11:41:48.020Z,102336.00
2022-11-29T11:44:46.836Z,102347.75
2022-11-29T11:47:22.199Z,102351.28
2022-11-29T11:49:56.009Z,102353.00
2022-11-29T11:52:27.851Z,102346.06
2022-11-29T11:54:59.342Z,102354.53
2022-11-29T11:57:28.023Z,102350.72
2022-11-29T12:00:04.997Z,102349.00
2022-11-29T12:02:40.843Z,102339.28
2022-11-29T12:05:19.406Z,102347.72
2022-11-29T12:08:10.820Z,102350.34
2022-11-29T12:10:40.570Z,102355.66
2022-11-29T12:13:19.802Z,102357.78
2022-11-29T12:15:50.039Z,102363.09
2022-11-29T12:18:38.020Z,102361.50
2022-11-29T12:21:16.550Z,102352.66
2022-11-29T12:23:57.158Z,102355.28
2022-11-29T12:26:56.406Z,102360.09
2022-11-29T12:29:28.446Z,102351.53
2022-11-29T12:32:32.516Z,102364.75
2022-11-29T12:35:42.836Z,102370.75
2022-11-29T12:38:33.481Z,102367.63
2022-11-29T12:41:28.863Z,102370.75
2022-11-29T12:44:17.935Z,102377.25
2022-11-29T12:47:02.114Z,102368.13
2022-11-29T12:50:05.114Z,102377.16
2022-11-29T12:53:03.875Z,102368.41
2022-11-29T12:55:57.500Z,102375.34
2022-11-29T12:59:03.005Z,102375.50
2022-11-29T13:01:38.558Z,102376.38
2022-11-29T13:04:21.340Z,102381.97
2022-11-29T13:07:00.675Z,102372.34
2022-11-29T13:10:11.472Z,102373.03
2022-11-29T13:12:47.236Z,102373.28
2022-11-29T13:15:21.606Z,102374.19
2022-11-29T13:18:14.818Z,102368.41
2022-11-29T13:20:48.065Z,102368.66
2022-11-29T13:24:12.191Z,102373.31
2022-11-29T13:26:43.202Z,102365.53
2022-11-29T13:29:16.396Z,102366.03
2022-11-29T13:31:46.279Z,102371.25
2022-11-29T13:34:17.582Z,102368.47
2022-11-29T13:37:06.635Z,102364.84
2022-11-29T13:39:43.162Z,102361.19
2022-11-29T13:42:16.035Z,102366.47
2022-11-29T13:44:56.172Z,102361.78
2022-11-29T13:47:24.122Z,102370.72
2022-11-29T13:50:05.588Z,102372.94
2022-11-29T13:52:41.660Z,102374.41
2022-11-29T13:55:12.030Z,102373.81
2022-11-29T14:00:44.084Z,102375.66
2022-11-29T14:03:27.800Z,102367.25
2022-11-29T14:06:15.431Z,102370.59
2022-11-29T14:09:24.109Z,102371.00
2022-11-29T14:12:19.024Z,102368.53
2022-11-29T14:14:51.265Z,102376.78
2022-11-29T14:17:27.618Z,102379.84
2022-11-29T14:20:23.754Z,102376.56
2022-11-29T14:23:06.466Z,102381.44
2022-11-29T14:25:51.004Z,102379.88
2022-11-29T14:28:21.748Z,102387.19
2022-11-29T14:30:50.496Z,102378.13
2022-11-29T14:34:02.014Z,102383.78
2022-11-29T14:36:53.569Z,102383.13
2022-11-29T14:39:30.330Z,102382.38
2022-11-29T14:42:18.770Z,102378.13
2022-11-29T14:44:51.346Z,102375.41
2022-11-29T14:47:50.207Z,102374.34
2022-11-29T14:50:36.702Z,102378.06
2022-11-29T14:53:06.724Z,102366.81
2022-11-29T14:55:38.366Z,102372.53
2022-11-29T14:58:17.565Z,102373.06
2022-11-29T15:00:47.815Z,102387.63
2022-11-29T15:03:30.820Z,102382.19
2022-11-29T15:06:13.731Z,102387.22
2022-11-29T15:09:03.234Z,102388.03
2022-11-29T15:11:34.319Z,102390.94
2022-11-29T15:14:07.155Z,102395.03
2022-11-29T15:16:40.451Z,102397.16
2022-11-29T15:19:49.778Z,102397.59
2022-11-29T15:22:28.703Z,102394.59
2022-11-29T15:25:12.417Z,102397.34
2022-11-29T15:27:57.052Z,102384.63
2022-11-29T15:30:38.545Z,102396.22
2022-11-29T15:33:25.065Z,102385.69
2022-11-29T15:36:03.369Z,102381.66
2022-11-29T15:38:42.436Z,102388.19
2022-11-29T15:41:41.126Z,102400.63
2022-11-29T15:44:22.610Z,102385.25
2022-11-29T15:46:50.177Z,102395.53
2022-11-29T15:49:28.142Z,102395.28
2022-11-29T15:52:02.310Z,102393.22
2022-11-29T15:54:35.197Z,102387.38
2022-11-29T15:57:13.894Z,102379.50
2022-11-29T16:00:04.926Z,102386.13
2022-11-29T16:02:40.763Z,102389.75
2022-11-29T16:05:29.182Z,102379.75
2022-11-29T16:08:01.377Z,102381.66
2022-11-29T16:10:43.882Z,102377.19
2022-11-29T16:13:40.069Z,102373.78
2022-11-29T16:16:15.712Z,102384.75
2022-11-29T16:18:45.646Z,102381.41
2022-11-29T16:21:29.073Z,102377.22
2022-11-29T16:23:57.647Z,102378.63
2022-11-29T16:26:39.251Z,102392.94
2022-11-29T16:29:36.550Z,102385.44
2022-11-29T16:32:19.216Z,102399.94
2022-11-29T16:34:47.151Z,102406.34
2022-11-29T16:37:20.702Z,102402.91
2022-11-29T16:39:50.586Z,102405.38
2022-11-29T16:42:26.296Z,102398.97
2022-11-29T16:45:01.083Z,102395.19
2022-11-29T16:47:31.277Z,102395.25
2022-11-29T16:50:01.565Z,102396.16
2022-11-29T16:52:33.430Z,102389.13
2022-11-29T16:55:01.236Z,102394.16
2022-11-29T16:57:31.654Z,102389.44
2022-11-29T16:59:59.313Z,102387.41
2022-11-29T17:02:29.994Z,102390.84
2022-11-29T17:04:58.913Z,102387.94
2022-11-29T17:07:31.767Z,102399.72
2022-11-29T17:09:59.840Z,102394.53
2022-11-29T17:12:27.349Z,102394.72
2022-11-29T17:14:54.896Z,102389.50
2022-11-29T17:17:22.342Z,102396.06
2022-11-29T17:19:49.839Z,102391.31
2022-11-29T17:22:17.389Z,102386.97
2022-11-29T17:24:48.296Z,102394.94
2022-11-29T17:27:16.358Z,102390.63
2022-11-29T17:29:43.846Z,102386.75
2022-11-29T17:32:11.488Z,102383.13
2022-11-29T17:34:39.064Z,102381.34
2022-11-29T17:37:06.681Z,102395.66
2022-11-29T17:39:34.215Z,102395.72
2022-11-29T17:42:04.018Z,102396.41
2022-11-29T17:44:34.482Z,102392.75
2022-11-29T17:47:02.087Z,102386.19
2022-11-29T17:49:31.984Z,102382.53
2022-11-29T17:51:59.526Z,102387.53
2022-11-29T17:54:28.450Z,102391.63
2022-11-29T17:56:55.902Z,102391.13
2022-11-29T17:59:23.413Z,102384.75
2022-11-29T18:01:51.036Z,102385.66
2022-11-29T18:04:18.711Z,102390.16
2022-11-29T18:06:50.157Z,102400.34
2022-11-29T18:09:19.689Z,102408.28
2022-11-29T18:11:50.100Z,102406.19
2022-11-29T18:14:22.807Z,102398.69
2022-11-29T18:16:51.668Z,102399.56
2022-11-29T18:19:21.739Z,102407.03
2022-11-29T18:21:50.360Z,102407.03
2022-11-29T18:24:18.470Z,102406.75
2022-11-29T18:26:46.006Z,102399.72
2022-11-29T18:29:13.721Z,102392.84
2022-11-29T18:31:43.703Z,102395.97
2022-11-29T18:34:13.553Z,102399.41
2022-11-29T18:36:44.414Z,102379.00
2022-11-29T18:39:14.589Z,102383.31
2022-11-29T18:41:47.197Z,102390.81
2022-11-29T18:44:17.522Z,102395.84
2022-11-29T18:46:46.101Z,102392.69
2022-11-29T18:49:16.152Z,102405.66
2022-11-29T18:51:45.516Z,102399.53
2022-11-29T18:54:15.937Z,102404.34
2022-11-29T18:56:45.484Z,102400.66
2022-11-29T18:59:18.568Z,102394.13
2022-11-29T19:01:48.231Z,102394.13
2022-11-29T19:04:18.783Z,102398.94
2022-11-29T19:06:46.835Z,102391.44
2022-11-29T19:09:23.971Z,102381.75
2022-11-29T19:11:51.748Z,102384.03
2022-11-29T19:14:21.455Z,102384.25
2022-11-29T19:16:50.132Z,102399.28
2022-11-29T19:19:19.081Z,102387.66
2022-11-29T19:21:47.523Z,102389.72
2022-11-29T19:24:18.348Z,102388.81
2022-11-29T19:26:49.773Z,102383.34
2022-11-29T19:29:17.722Z,102392.25
2022-11-29T19:31:45.604Z,102394.09
2022-11-29T19:34:13.585Z,102389.09
2022-11-29T19:36:43.635Z,102394.75
2022-11-29T19:39:13.485Z,102397.72
2022-11-29T19:41:48.452Z,102400.91
2022-11-29T19:44:16.209Z,102404.34
2022-11-29T19:46:47.216Z,102394.13
2022-11-29T19:49:15.337Z,102405.03
2022-11-29T19:51:43.148Z,102398.44
2022-11-29T19:54:12.024Z,102405.72
2022-11-29T19:56:44.893Z,102401.59
2022-11-29T19:59:12.498Z,102405.00
2022-11-29T20:01:42.279Z,102408.63
2022-11-29T20:04:13.198Z,102409.94
2022-11-29T20:06:41.338Z,102408.97
2022-11-29T20:09:09.582Z,102388.06
2022-11-29T20:11:37.149Z,102397.34
2022-11-29T20:14:06.353Z,102402.09
2022-11-29T20:16:34.707Z,102406.84
2022-11-29T20:19:02.415Z,102397.25
2022-11-29T20:21:32.644Z,102400.22
2022-11-29T20:24:04.790Z,102404.97
2022-11-29T20:26:35.644Z,102404.53
2022-11-29T20:29:04.785Z,102403.56
2022-11-29T20:31:34.545Z,102401.25
2022-11-29T20:34:03.262Z,102399.88
2022-11-29T20:36:58.616Z,102405.53
2022-11-29T20:40:13.891Z,102393.91
2022-11-29T20:43:01.839Z,102402.97
2022-11-29T20:45:29.569Z,102394.66
2022-11-29T20:48:04.483Z,102394.06
2022-11-29T20:50:32.555Z,102389.78
2022-11-29T20:53:12.183Z,102392.94
2022-11-29T20:55:43.678Z,102398.88
2022-11-29T20:58:14.005Z,102398.16
2022-11-29T21:00:41.472Z,102394.56
2022-11-29T21:03:12.423Z,102397.75
2022-11-29T21:05:47.751Z,102395.00
2022-11-29T21:08:17.324Z,102402.69
2022-11-29T21:10:45.770Z,102398.38
2022-11-29T21:13:14.437Z,102401.53
2022-11-29T21:15:42.542Z,102404.25
2022-11-29T21:18:24.666Z,102409.44
2022-11-29T21:21:07.454Z,102414.94
2022-11-29T21:24:00.907Z,102404.25
2022-11-29T21:26:49.599Z,102405.38
2022-11-29T21:29:22.109Z,102398.75
2022-11-29T21:31:54.382Z,102411.94
2022-11-29T21:34:21.985Z,102417.38
2022-11-29T21:36:56.693Z,102411.03
2022-11-29T21:39:35.269Z,102419.66
2022-11-29T21:42:03.094Z,102416.53
2022-11-29T21:44:30.608Z,102420.63
2022-11-29T21:47:03.285Z,102414.78
2022-11-29T21:49:31.040Z,102409.13
2022-11-29T21:52:01.158Z,102412.31
2022-11-29T21:54:29.493Z,102416.91
2022-11-29T21:56:57.014Z,102423.31
2022-11-29T21:59:25.071Z,102421.78
2022-11-29T22:01:53.134Z,102412.88
2022-11-29T22:04:21.388Z,102418.53
2022-11-29T22:06:48.911Z,102417.63
2022-11-29T22:09:16.457Z,102415.31
2022-11-29T22:11:44.076Z,102421.91
2022-11-29T22:14:16.366Z,102417.09
2022-11-29T22:16:50.333Z,102425.28
2022-11-29T22:19:19.288Z,102419.78
2022-11-29T22:21:49.834Z,102418.41
2022-11-29T22:24:19.765Z,102423.41
2022-11-29T22:26:48.467Z,102416.38
2022-11-29T22:29:16.716Z,102425.69
2022-11-29T22:31:47.122Z,102415.00
2022-11-29T22:34:14.813Z,102425.66
2022-11-29T22:36:42.720Z,102421.75
2022-11-29T22:39:10.639Z,102420.41
2022-11-29T22:41:39.394Z,102423.88
2022-11-29T22:44:07.501Z,102420.69
2022-11-29T22:46:40.213Z,102417.31
2022-11-29T22:49:08.125Z,102420.31
2022-11-29T22:51:37.583Z,102417.66
2022-11-29T22:54:08.086Z,102422.63
2022-11-29T22:56:38.782Z,102424.88
2022-11-29T22:59:06.446Z,102423.03
2022-11-29T23:01:36.359Z,102426.19
2022-11-29T23:04:07.323Z,102425.91
2022-11-29T23:06:43.815Z,102428.41
2022-11-29T23:09:16.534Z,102424.09
2022-11-29T23:11:51.100Z,102428.41
2022-11-29T23:14:20.189Z,102422.50
2022-11-29T23:16:47.769Z,102435.94
2022-11-29T23:19:16.733Z,102430.75
2022-11-29T23:21:45.976Z,102431.72
2022-11-29T23:24:16.691Z,102434.91
2022-11-29T23:26:47.216Z,102429.44
2022-11-29T23:29:19.440Z,102438.75
2022-11-29T23:31:49.363Z,102429.06
2022-11-29T23:34:17.218Z,102430.66
2022-11-29T23:36:49.667Z,102425.66
2022-11-29T23:39:20.145Z,102427.47
2022-11-29T23:41:47.695Z,102429.97
2022-11-29T23:44:15.178Z,102431.56
2022-11-29T23:46:42.617Z,102426.16
2022-11-29T23:49:10.190Z,102425.91
2022-11-29T23:51:37.667Z,102425.25
2022-11-29T23:54:05.322Z,102422.28
2022-11-29T23:56:35.586Z,102417.06
2022-11-29T23:59:03.447Z,102417.78
